sensor_id;sensor_type;location;lat;lon;timestamp;temperature;humidity
55313;DHT22;46892;45.668;11.756;2023-07-31T00:01:15;22.90;79.80
55313;DHT22;46892;45.668;11.756;2023-07-31T00:03:41;23.00;79.50
55313;DHT22;46892;45.668;11.756;2023-07-31T00:06:07;23.00;79.70
55313;DHT22;46892;45.668;11.756;2023-07-31T00:08:32;23.10;79.30
55313;DHT22;46892;45.668;11.756;2023-07-31T00:10:58;23.10;79.20
55313;DHT22;46892;45.668;11.756;2023-07-31T00:13:24;23.10;79.10
55313;DHT22;46892;45.668;11.756;2023-07-31T00:15:50;23.10;78.80
55313;DHT22;46892;45.668;11.756;2023-07-31T00:18:16;23.20;79.00
55313;DHT22;46892;45.668;11.756;2023-07-31T00:20:41;23.20;79.40
55313;DHT22;46892;45.668;11.756;2023-07-31T00:23:07;23.20;79.20
55313;DHT22;46892;45.668;11.756;2023-07-31T00:25:33;23.20;78.80
55313;DHT22;46892;45.668;11.756;2023-07-31T00:27:58;23.20;78.60
55313;DHT22;46892;45.668;11.756;2023-07-31T00:30:24;23.20;78.40
55313;DHT22;46892;45.668;11.756;2023-07-31T00:32:50;23.30;78.10
55313;DHT22;46892;45.668;11.756;2023-07-31T00:35:16;23.20;78.30
55313;DHT22;46892;45.668;11.756;2023-07-31T00:37:42;23.20;78.70
55313;DHT22;46892;45.668;11.756;2023-07-31T00:40:08;23.20;78.50
55313;DHT22;46892;45.668;11.756;2023-07-31T00:42:34;23.20;78.70
55313;DHT22;46892;45.668;11.756;2023-07-31T00:45:00;23.10;78.70
55313;DHT22;46892;45.668;11.756;2023-07-31T00:47:26;23.10;79.10
55313;DHT22;46892;45.668;11.756;2023-07-31T00:49:52;23.00;79.40
55313;DHT22;46892;45.668;11.756;2023-07-31T00:52:18;22.90;79.50
55313;DHT22;46892;45.668;11.756;2023-07-31T00:54:44;22.80;79.70
55313;DHT22;46892;45.668;11.756;2023-07-31T00:57:10;22.80;80.00
55313;DHT22;46892;45.668;11.756;2023-07-31T00:59:36;22.80;80.10
55313;DHT22;46892;45.668;11.756;2023-07-31T01:02:02;22.80;80.10
55313;DHT22;46892;45.668;11.756;2023-07-31T01:04:29;22.90;79.50
55313;DHT22;46892;45.668;11.756;2023-07-31T01:06:56;22.90;79.10
55313;DHT22;46892;45.668;11.756;2023-07-31T01:09:48;23.00;78.90
55313;DHT22;46892;45.668;11.756;2023-07-31T01:12:19;23.00;79.00
55313;DHT22;46892;45.668;11.756;2023-07-31T01:15:05;22.90;79.20
55313;DHT22;46892;45.668;11.756;2023-07-31T01:17:31;23.00;79.10
55313;DHT22;46892;45.668;11.756;2023-07-31T01:20:01;23.00;78.80
55313;DHT22;46892;45.668;11.756;2023-07-31T01:28:33;22.80;79.30
55313;DHT22;46892;45.668;11.756;2023-07-31T01:31:02;22.80;80.00
55313;DHT22;46892;45.668;11.756;2023-07-31T01:33:30;22.80;79.20
55313;DHT22;46892;45.668;11.756;2023-07-31T01:35:56;22.80;79.10
55313;DHT22;46892;45.668;11.756;2023-07-31T01:38:22;22.70;79.60
55313;DHT22;46892;45.668;11.756;2023-07-31T01:40:52;22.80;79.30
55313;DHT22;46892;45.668;11.756;2023-07-31T01:43:18;22.70;79.20
55313;DHT22;46892;45.668;11.756;2023-07-31T01:45:43;22.80;79.10
55313;DHT22;46892;45.668;11.756;2023-07-31T01:48:09;22.70;79.40
55313;DHT22;46892;45.668;11.756;2023-07-31T01:50:35;22.70;79.30
55313;DHT22;46892;45.668;11.756;2023-07-31T01:53:01;22.70;79.40
55313;DHT22;46892;45.668;11.756;2023-07-31T01:55:26;22.80;79.20
55313;DHT22;46892;45.668;11.756;2023-07-31T01:57:52;22.80;79.00
55313;DHT22;46892;45.668;11.756;2023-07-31T02:00:18;22.80;78.80
55313;DHT22;46892;45.668;11.756;2023-07-31T02:02:44;22.80;78.70
55313;DHT22;46892;45.668;11.756;2023-07-31T02:05:10;22.80;78.80
55313;DHT22;46892;45.668;11.756;2023-07-31T02:07:35;22.80;79.00
55313;DHT22;46892;45.668;11.756;2023-07-31T02:10:01;22.80;79.20
55313;DHT22;46892;45.668;11.756;2023-07-31T02:12:27;22.70;79.50
55313;DHT22;46892;45.668;11.756;2023-07-31T02:14:55;22.50;79.80
55313;DHT22;46892;45.668;11.756;2023-07-31T02:17:21;22.40;80.30
55313;DHT22;46892;45.668;11.756;2023-07-31T02:19:47;22.40;81.10
55313;DHT22;46892;45.668;11.756;2023-07-31T02:22:13;22.40;81.10
55313;DHT22;46892;45.668;11.756;2023-07-31T02:24:38;22.50;81.20
55313;DHT22;46892;45.668;11.756;2023-07-31T02:27:04;22.40;81.50
55313;DHT22;46892;45.668;11.756;2023-07-31T02:29:30;22.30;81.70
55313;DHT22;46892;45.668;11.756;2023-07-31T02:31:56;22.30;81.50
55313;DHT22;46892;45.668;11.756;2023-07-31T02:34:22;22.30;81.60
55313;DHT22;46892;45.668;11.756;2023-07-31T02:36:47;22.30;82.30
55313;DHT22;46892;45.668;11.756;2023-07-31T02:39:13;22.30;82.20
55313;DHT22;46892;45.668;11.756;2023-07-31T02:41:39;22.30;82.40
55313;DHT22;46892;45.668;11.756;2023-07-31T02:44:05;22.30;82.20
55313;DHT22;46892;45.668;11.756;2023-07-31T02:46:30;22.30;82.50
55313;DHT22;46892;45.668;11.756;2023-07-31T02:48:57;22.30;82.10
55313;DHT22;46892;45.668;11.756;2023-07-31T02:51:22;22.30;81.70
55313;DHT22;46892;45.668;11.756;2023-07-31T02:53:48;22.30;82.90
55313;DHT22;46892;45.668;11.756;2023-07-31T02:56:15;22.20;83.10
55313;DHT22;46892;45.668;11.756;2023-07-31T02:58:40;22.20;82.80
55313;DHT22;46892;45.668;11.756;2023-07-31T03:01:06;22.20;83.30
55313;DHT22;46892;45.668;11.756;2023-07-31T03:03:32;22.10;82.60
55313;DHT22;46892;45.668;11.756;2023-07-31T03:05:57;22.10;82.30
55313;DHT22;46892;45.668;11.756;2023-07-31T03:08:23;22.00;82.90
55313;DHT22;46892;45.668;11.756;2023-07-31T03:10:49;22.00;82.00
55313;DHT22;46892;45.668;11.756;2023-07-31T03:13:15;22.00;81.80
55313;DHT22;46892;45.668;11.756;2023-07-31T03:15:43;22.10;82.30
55313;DHT22;46892;45.668;11.756;2023-07-31T03:18:09;22.10;81.80
55313;DHT22;46892;45.668;11.756;2023-07-31T03:20:35;22.10;80.70
55313;DHT22;46892;45.668;11.756;2023-07-31T03:23:00;22.20;79.70
55313;DHT22;46892;45.668;11.756;2023-07-31T03:25:26;22.20;79.60
55313;DHT22;46892;45.668;11.756;2023-07-31T03:27:52;22.30;79.20
55313;DHT22;46892;45.668;11.756;2023-07-31T03:30:18;22.20;79.50
55313;DHT22;46892;45.668;11.756;2023-07-31T03:32:43;22.10;79.70
55313;DHT22;46892;45.668;11.756;2023-07-31T03:35:09;22.00;79.80
55313;DHT22;46892;45.668;11.756;2023-07-31T03:37:35;22.00;80.10
55313;DHT22;46892;45.668;11.756;2023-07-31T03:40:01;22.00;80.10
55313;DHT22;46892;45.668;11.756;2023-07-31T03:42:26;22.00;80.10
55313;DHT22;46892;45.668;11.756;2023-07-31T03:44:52;22.00;80.00
55313;DHT22;46892;45.668;11.756;2023-07-31T03:47:18;22.00;79.70
55313;DHT22;46892;45.668;11.756;2023-07-31T03:49:43;22.00;79.50
55313;DHT22;46892;45.668;11.756;2023-07-31T03:52:09;22.00;79.60
55313;DHT22;46892;45.668;11.756;2023-07-31T03:54:35;22.00;79.50
55313;DHT22;46892;45.668;11.756;2023-07-31T03:57:00;22.10;79.30
55313;DHT22;46892;45.668;11.756;2023-07-31T03:59:26;22.00;79.30
55313;DHT22;46892;45.668;11.756;2023-07-31T04:01:52;22.00;79.40
55313;DHT22;46892;45.668;11.756;2023-07-31T04:04:18;22.00;79.40
55313;DHT22;46892;45.668;11.756;2023-07-31T04:06:43;21.90;79.30
55313;DHT22;46892;45.668;11.756;2023-07-31T04:09:09;21.90;79.00
55313;DHT22;46892;45.668;11.756;2023-07-31T04:11:35;22.00;79.20
55313;DHT22;46892;45.668;11.756;2023-07-31T04:14:01;22.00;79.30
55313;DHT22;46892;45.668;11.756;2023-07-31T04:16:27;21.90;79.50
55313;DHT22;46892;45.668;11.756;2023-07-31T04:18:52;22.00;79.60
55313;DHT22;46892;45.668;11.756;2023-07-31T04:21:18;22.00;79.50
55313;DHT22;46892;45.668;11.756;2023-07-31T04:23:44;22.00;79.40
55313;DHT22;46892;45.668;11.756;2023-07-31T04:26:09;22.00;79.20
55313;DHT22;46892;45.668;11.756;2023-07-31T04:28:35;22.00;78.90
55313;DHT22;46892;45.668;11.756;2023-07-31T04:31:03;21.90;79.00
55313;DHT22;46892;45.668;11.756;2023-07-31T04:33:29;22.00;78.80
55313;DHT22;46892;45.668;11.756;2023-07-31T04:35:55;22.00;78.40
55313;DHT22;46892;45.668;11.756;2023-07-31T04:38:21;22.10;78.20
55313;DHT22;46892;45.668;11.756;2023-07-31T04:40:47;22.20;77.90
55313;DHT22;46892;45.668;11.756;2023-07-31T04:43:13;22.20;77.30
55313;DHT22;46892;45.668;11.756;2023-07-31T04:45:38;22.30;77.30
55313;DHT22;46892;45.668;11.756;2023-07-31T04:48:04;22.40;76.90
55313;DHT22;46892;45.668;11.756;2023-07-31T04:50:30;22.50;76.70
55313;DHT22;46892;45.668;11.756;2023-07-31T04:52:56;22.60;76.30
55313;DHT22;46892;45.668;11.756;2023-07-31T04:55:22;22.70;76.00
55313;DHT22;46892;45.668;11.756;2023-07-31T04:57:48;22.90;75.80
55313;DHT22;46892;45.668;11.756;2023-07-31T05:00:14;23.00;75.50
55313;DHT22;46892;45.668;11.756;2023-07-31T05:02:39;23.20;75.00
55313;DHT22;46892;45.668;11.756;2023-07-31T05:05:05;23.40;74.50
55313;DHT22;46892;45.668;11.756;2023-07-31T05:07:31;23.60;73.90
55313;DHT22;46892;45.668;11.756;2023-07-31T05:09:57;23.80;73.10
55313;DHT22;46892;45.668;11.756;2023-07-31T05:12:22;24.00;72.50
55313;DHT22;46892;45.668;11.756;2023-07-31T05:14:48;24.30;71.50
55313;DHT22;46892;45.668;11.756;2023-07-31T05:17:14;24.40;71.30
55313;DHT22;46892;45.668;11.756;2023-07-31T05:19:39;24.50;71.30
55313;DHT22;46892;45.668;11.756;2023-07-31T05:22:06;24.80;71.10
55313;DHT22;46892;45.668;11.756;2023-07-31T05:24:31;25.00;70.70
55313;DHT22;46892;45.668;11.756;2023-07-31T05:26:57;25.10;71.00
55313;DHT22;46892;45.668;11.756;2023-07-31T05:29:23;25.20;70.20
55313;DHT22;46892;45.668;11.756;2023-07-31T05:31:48;25.30;69.10
55313;DHT22;46892;45.668;11.756;2023-07-31T05:34:14;25.30;68.50
55313;DHT22;46892;45.668;11.756;2023-07-31T05:36:40;25.20;68.60
55313;DHT22;46892;45.668;11.756;2023-07-31T05:39:05;25.20;68.90
55313;DHT22;46892;45.668;11.756;2023-07-31T05:41:34;25.20;68.30
55313;DHT22;46892;45.668;11.756;2023-07-31T05:44:00;25.30;69.60
55313;DHT22;46892;45.668;11.756;2023-07-31T05:46:26;25.50;69.50
55313;DHT22;46892;45.668;11.756;2023-07-31T05:48:52;25.70;69.60
55313;DHT22;46892;45.668;11.756;2023-07-31T05:51:18;25.70;68.80
55313;DHT22;46892;45.668;11.756;2023-07-31T05:53:43;25.80;68.90
55313;DHT22;46892;45.668;11.756;2023-07-31T05:56:09;25.80;68.70
55313;DHT22;46892;45.668;11.756;2023-07-31T05:58:35;26.00;69.50
55313;DHT22;46892;45.668;11.756;2023-07-31T06:01:00;26.00;68.70
55313;DHT22;46892;45.668;11.756;2023-07-31T06:03:26;25.90;68.40
55313;DHT22;46892;45.668;11.756;2023-07-31T06:05:52;26.00;69.30
55313;DHT22;46892;45.668;11.756;2023-07-31T06:08:18;25.90;69.20
55313;DHT22;46892;45.668;11.756;2023-07-31T06:10:44;26.00;68.50
55313;DHT22;46892;45.668;11.756;2023-07-31T06:13:09;26.00;69.00
55313;DHT22;46892;45.668;11.756;2023-07-31T06:15:35;26.10;69.70
55313;DHT22;46892;45.668;11.756;2023-07-31T06:18:01;26.20;69.80
55313;DHT22;46892;45.668;11.756;2023-07-31T06:20:28;26.40;67.30
55313;DHT22;46892;45.668;11.756;2023-07-31T06:22:54;26.50;66.10
55313;DHT22;46892;45.668;11.756;2023-07-31T06:25:21;26.60;66.50
55313;DHT22;46892;45.668;11.756;2023-07-31T06:27:47;27.10;67.50
55313;DHT22;46892;45.668;11.756;2023-07-31T06:30:13;27.30;64.80
55313;DHT22;46892;45.668;11.756;2023-07-31T06:32:39;27.60;65.40
55313;DHT22;46892;45.668;11.756;2023-07-31T06:35:06;27.90;62.20
55313;DHT22;46892;45.668;11.756;2023-07-31T06:37:32;28.00;61.80
55313;DHT22;46892;45.668;11.756;2023-07-31T06:39:58;28.10;62.50
55313;DHT22;46892;45.668;11.756;2023-07-31T06:42:23;28.20;60.70
55313;DHT22;46892;45.668;11.756;2023-07-31T06:44:49;28.30;60.80
55313;DHT22;46892;45.668;11.756;2023-07-31T06:47:15;28.20;60.80
55313;DHT22;46892;45.668;11.756;2023-07-31T06:49:41;28.00;60.10
55313;DHT22;46892;45.668;11.756;2023-07-31T06:52:06;27.90;61.90
55313;DHT22;46892;45.668;11.756;2023-07-31T06:54:32;27.80;64.20
55313;DHT22;46892;45.668;11.756;2023-07-31T06:56:58;27.80;64.30
55313;DHT22;46892;45.668;11.756;2023-07-31T06:59:23;27.90;62.40
55313;DHT22;46892;45.668;11.756;2023-07-31T07:01:49;27.90;63.90
55313;DHT22;46892;45.668;11.756;2023-07-31T07:04:15;27.90;61.50
55313;DHT22;46892;45.668;11.756;2023-07-31T07:06:41;27.90;61.70
55313;DHT22;46892;45.668;11.756;2023-07-31T07:09:07;27.90;60.40
55313;DHT22;46892;45.668;11.756;2023-07-31T07:11:33;27.80;59.60
55313;DHT22;46892;45.668;11.756;2023-07-31T07:13:59;27.90;62.10
55313;DHT22;46892;45.668;11.756;2023-07-31T07:16:28;27.80;58.40
55313;DHT22;46892;45.668;11.756;2023-07-31T07:18:54;27.80;59.60
55313;DHT22;46892;45.668;11.756;2023-07-31T07:21:19;27.80;58.60
55313;DHT22;46892;45.668;11.756;2023-07-31T07:23:45;27.70;58.10
55313;DHT22;46892;45.668;11.756;2023-07-31T07:26:11;27.50;58.40
55313;DHT22;46892;45.668;11.756;2023-07-31T07:28:37;27.60;58.00
55313;DHT22;46892;45.668;11.756;2023-07-31T07:31:03;27.70;61.20
55313;DHT22;46892;45.668;11.756;2023-07-31T07:33:29;27.60;59.10
55313;DHT22;46892;45.668;11.756;2023-07-31T07:35:54;27.60;58.00
55313;DHT22;46892;45.668;11.756;2023-07-31T07:38:20;27.70;57.70
55313;DHT22;46892;45.668;11.756;2023-07-31T07:40:46;27.80;57.50
55313;DHT22;46892;45.668;11.756;2023-07-31T07:43:16;27.90;56.90
55313;DHT22;46892;45.668;11.756;2023-07-31T07:45:41;27.80;58.10
55313;DHT22;46892;45.668;11.756;2023-07-31T07:48:07;27.70;55.70
55313;DHT22;46892;45.668;11.756;2023-07-31T07:50:33;27.60;57.80
55313;DHT22;46892;45.668;11.756;2023-07-31T07:52:59;27.60;55.40
55313;DHT22;46892;45.668;11.756;2023-07-31T07:55:24;27.70;59.50
55313;DHT22;46892;45.668;11.756;2023-07-31T07:57:50;27.50;57.80
55313;DHT22;46892;45.668;11.756;2023-07-31T08:00:16;27.50;57.40
55313;DHT22;46892;45.668;11.756;2023-07-31T08:02:43;27.30;57.70
55313;DHT22;46892;45.668;11.756;2023-07-31T08:05:09;27.20;58.30
55313;DHT22;46892;45.668;11.756;2023-07-31T08:07:35;27.00;57.50
55313;DHT22;46892;45.668;11.756;2023-07-31T08:10:00;27.00;61.70
55313;DHT22;46892;45.668;11.756;2023-07-31T08:12:26;27.10;59.80
55313;DHT22;46892;45.668;11.756;2023-07-31T08:14:52;26.90;59.20
55313;DHT22;46892;45.668;11.756;2023-07-31T08:17:18;26.90;60.20
55313;DHT22;46892;45.668;11.756;2023-07-31T08:19:43;26.80;60.00
55313;DHT22;46892;45.668;11.756;2023-07-31T08:22:10;26.80;60.50
55313;DHT22;46892;45.668;11.756;2023-07-31T08:24:36;26.90;58.50
55313;DHT22;46892;45.668;11.756;2023-07-31T08:27:01;27.00;63.00
55313;DHT22;46892;45.668;11.756;2023-07-31T08:29:27;27.10;60.70
55313;DHT22;46892;45.668;11.756;2023-07-31T08:31:53;27.20;60.90
55313;DHT22;46892;45.668;11.756;2023-07-31T08:34:19;27.30;61.80
55313;DHT22;46892;45.668;11.756;2023-07-31T08:36:44;27.40;60.30
55313;DHT22;46892;45.668;11.756;2023-07-31T08:39:10;27.30;61.20
55313;DHT22;46892;45.668;11.756;2023-07-31T08:41:39;27.30;62.50
55313;DHT22;46892;45.668;11.756;2023-07-31T08:44:05;27.30;61.60
55313;DHT22;46892;45.668;11.756;2023-07-31T08:46:32;27.30;59.30
55313;DHT22;46892;45.668;11.756;2023-07-31T08:48:59;27.20;60.20
55313;DHT22;46892;45.668;11.756;2023-07-31T08:51:26;27.30;61.60
55313;DHT22;46892;45.668;11.756;2023-07-31T08:53:53;27.20;61.20
55313;DHT22;46892;45.668;11.756;2023-07-31T08:56:19;27.20;61.90
55313;DHT22;46892;45.668;11.756;2023-07-31T08:58:46;27.20;61.30
55313;DHT22;46892;45.668;11.756;2023-07-31T09:01:13;27.40;60.50
55313;DHT22;46892;45.668;11.756;2023-07-31T09:03:40;27.50;61.00
55313;DHT22;46892;45.668;11.756;2023-07-31T09:06:07;27.60;59.20
55313;DHT22;46892;45.668;11.756;2023-07-31T09:08:33;27.70;58.10
55313;DHT22;46892;45.668;11.756;2023-07-31T09:11:01;27.70;58.70
55313;DHT22;46892;45.668;11.756;2023-07-31T09:13:29;27.90;59.40
55313;DHT22;46892;45.668;11.756;2023-07-31T09:15:55;27.90;58.40
55313;DHT22;46892;45.668;11.756;2023-07-31T09:18:21;28.00;58.10
55313;DHT22;46892;45.668;11.756;2023-07-31T09:21:20;28.20;59.80
55313;DHT22;46892;45.668;11.756;2023-07-31T09:23:47;28.30;57.80
55313;DHT22;46892;45.668;11.756;2023-07-31T09:26:36;28.40;57.80
55313;DHT22;46892;45.668;11.756;2023-07-31T09:29:06;28.40;55.20
55313;DHT22;46892;45.668;11.756;2023-07-31T09:31:43;28.20;55.20
55313;DHT22;46892;45.668;11.756;2023-07-31T09:34:09;28.10;57.90
55313;DHT22;46892;45.668;11.756;2023-07-31T09:36:43;28.10;57.30
55313;DHT22;46892;45.668;11.756;2023-07-31T09:39:11;28.20;57.00
55313;DHT22;46892;45.668;11.756;2023-07-31T09:41:42;28.20;56.00
55313;DHT22;46892;45.668;11.756;2023-07-31T09:44:08;28.20;56.70
55313;DHT22;46892;45.668;11.756;2023-07-31T09:46:38;28.30;56.30
55313;DHT22;46892;45.668;11.756;2023-07-31T09:49:11;28.20;57.80
55313;DHT22;46892;45.668;11.756;2023-07-31T09:51:38;28.20;55.90
55313;DHT22;46892;45.668;11.756;2023-07-31T09:54:09;28.20;55.10
55313;DHT22;46892;45.668;11.756;2023-07-31T09:56:38;28.10;59.00
55313;DHT22;46892;45.668;11.756;2023-07-31T09:59:08;28.20;58.50
55313;DHT22;46892;45.668;11.756;2023-07-31T10:01:36;28.30;56.10
55313;DHT22;46892;45.668;11.756;2023-07-31T10:04:02;28.20;55.70
55313;DHT22;46892;45.668;11.756;2023-07-31T10:06:29;28.30;55.50
55313;DHT22;46892;45.668;11.756;2023-07-31T10:08:55;28.30;56.90
55313;DHT22;46892;45.668;11.756;2023-07-31T10:11:22;28.30;54.70
55313;DHT22;46892;45.668;11.756;2023-07-31T10:13:51;28.20;55.80
55313;DHT22;46892;45.668;11.756;2023-07-31T10:16:17;28.00;56.80
55313;DHT22;46892;45.668;11.756;2023-07-31T10:18:44;28.00;57.90
55313;DHT22;46892;45.668;11.756;2023-07-31T10:21:11;28.10;56.40
55313;DHT22;46892;45.668;11.756;2023-07-31T10:23:37;28.10;58.80
55313;DHT22;46892;45.668;11.756;2023-07-31T10:26:05;28.20;57.70
55313;DHT22;46892;45.668;11.756;2023-07-31T10:28:33;28.10;55.40
55313;DHT22;46892;45.668;11.756;2023-07-31T10:31:01;28.20;59.60
55313;DHT22;46892;45.668;11.756;2023-07-31T10:33:28;28.20;56.70
55313;DHT22;46892;45.668;11.756;2023-07-31T10:36:16;28.20;55.80
55313;DHT22;46892;45.668;11.756;2023-07-31T10:38:43;28.30;55.30
55313;DHT22;46892;45.668;11.756;2023-07-31T10:41:11;28.30;56.60
55313;DHT22;46892;45.668;11.756;2023-07-31T10:43:38;28.40;56.00
55313;DHT22;46892;45.668;11.756;2023-07-31T10:46:12;28.40;55.60
55313;DHT22;46892;45.668;11.756;2023-07-31T10:48:39;28.40;56.70
55313;DHT22;46892;45.668;11.756;2023-07-31T10:51:11;28.40;56.00
55313;DHT22;46892;45.668;11.756;2023-07-31T10:53:39;28.40;56.20
55313;DHT22;46892;45.668;11.756;2023-07-31T10:56:10;28.40;55.60
55313;DHT22;46892;45.668;11.756;2023-07-31T10:58:44;28.40;57.50
55313;DHT22;46892;45.668;11.756;2023-07-31T11:01:11;28.50;56.00
55313;DHT22;46892;45.668;11.756;2023-07-31T11:03:47;28.50;55.70
55313;DHT22;46892;45.668;11.756;2023-07-31T11:06:17;28.50;53.90
55313;DHT22;46892;45.668;11.756;2023-07-31T11:08:47;28.60;54.30
55313;DHT22;46892;45.668;11.756;2023-07-31T11:11:15;28.60;55.30
55313;DHT22;46892;45.668;11.756;2023-07-31T11:13:48;28.70;56.10
55313;DHT22;46892;45.668;11.756;2023-07-31T11:16:23;28.70;55.40
55313;DHT22;46892;45.668;11.756;2023-07-31T11:18:49;28.70;53.90
55313;DHT22;46892;45.668;11.756;2023-07-31T11:21:21;28.80;54.00
55313;DHT22;46892;45.668;11.756;2023-07-31T11:23:48;28.70;54.80
55313;DHT22;46892;45.668;11.756;2023-07-31T11:26:15;28.80;57.60
55313;DHT22;46892;45.668;11.756;2023-07-31T11:28:41;28.90;56.40
55313;DHT22;46892;45.668;11.756;2023-07-31T11:31:10;28.90;56.00
55313;DHT22;46892;45.668;11.756;2023-07-31T11:33:36;28.90;55.00
55313;DHT22;46892;45.668;11.756;2023-07-31T11:36:02;29.00;53.90
55313;DHT22;46892;45.668;11.756;2023-07-31T11:38:32;29.00;54.90
55313;DHT22;46892;45.668;11.756;2023-07-31T11:41:00;29.00;53.50
55313;DHT22;46892;45.668;11.756;2023-07-31T11:43:28;28.90;57.70
55313;DHT22;46892;45.668;11.756;2023-07-31T11:45:56;29.10;54.70
55313;DHT22;46892;45.668;11.756;2023-07-31T11:48:26;29.20;58.20
55313;DHT22;46892;45.668;11.756;2023-07-31T11:50:54;29.20;53.80
55313;DHT22;46892;45.668;11.756;2023-07-31T11:56:13;29.10;52.60
55313;DHT22;46892;45.668;11.756;2023-07-31T11:58:39;29.10;52.90
55313;DHT22;46892;45.668;11.756;2023-07-31T12:01:06;29.10;54.30
55313;DHT22;46892;45.668;11.756;2023-07-31T12:03:33;29.20;58.20
55313;DHT22;46892;45.668;11.756;2023-07-31T12:05:59;29.30;54.50
55313;DHT22;46892;45.668;11.756;2023-07-31T12:08:26;29.20;52.30
55313;DHT22;46892;45.668;11.756;2023-07-31T12:10:53;29.20;52.80
55313;DHT22;46892;45.668;11.756;2023-07-31T12:13:24;29.20;56.30
55313;DHT22;46892;45.668;11.756;2023-07-31T12:15:55;29.30;56.60
55313;DHT22;46892;45.668;11.756;2023-07-31T12:18:22;29.50;55.80
55313;DHT22;46892;45.668;11.756;2023-07-31T12:20:53;29.50;54.40
55313;DHT22;46892;45.668;11.756;2023-07-31T12:23:21;29.60;54.10
55313;DHT22;46892;45.668;11.756;2023-07-31T12:26:07;29.50;52.60
55313;DHT22;46892;45.668;11.756;2023-07-31T12:28:46;29.40;52.80
55313;DHT22;46892;45.668;11.756;2023-07-31T12:31:13;29.40;53.50
55313;DHT22;46892;45.668;11.756;2023-07-31T12:33:41;29.40;55.00
55313;DHT22;46892;45.668;11.756;2023-07-31T12:36:15;29.50;55.00
55313;DHT22;46892;45.668;11.756;2023-07-31T12:38:41;29.60;54.10
55313;DHT22;46892;45.668;11.756;2023-07-31T12:41:08;29.50;50.40
55313;DHT22;46892;45.668;11.756;2023-07-31T12:43:38;29.50;53.50
55313;DHT22;46892;45.668;11.756;2023-07-31T12:46:03;29.50;53.80
55313;DHT22;46892;45.668;11.756;2023-07-31T12:48:31;29.40;54.50
55313;DHT22;46892;45.668;11.756;2023-07-31T12:50:56;29.30;52.70
55313;DHT22;46892;45.668;11.756;2023-07-31T12:53:22;29.10;55.20
55313;DHT22;46892;45.668;11.756;2023-07-31T12:55:48;29.10;54.90
55313;DHT22;46892;45.668;11.756;2023-07-31T12:58:13;29.10;55.10
55313;DHT22;46892;45.668;11.756;2023-07-31T13:00:39;29.20;56.30
55313;DHT22;46892;45.668;11.756;2023-07-31T13:03:05;29.50;55.60
55313;DHT22;46892;45.668;11.756;2023-07-31T13:05:31;29.70;55.80
55313;DHT22;46892;45.668;11.756;2023-07-31T13:07:56;29.80;56.20
55313;DHT22;46892;45.668;11.756;2023-07-31T13:10:23;29.90;56.50
55313;DHT22;46892;45.668;11.756;2023-07-31T13:12:49;30.00;54.60
55313;DHT22;46892;45.668;11.756;2023-07-31T13:15:15;30.10;52.50
55313;DHT22;46892;45.668;11.756;2023-07-31T13:17:41;30.00;53.30
55313;DHT22;46892;45.668;11.756;2023-07-31T13:20:07;30.00;53.10
55313;DHT22;46892;45.668;11.756;2023-07-31T13:22:33;30.10;52.00
55313;DHT22;46892;45.668;11.756;2023-07-31T13:24:59;30.10;52.20
55313;DHT22;46892;45.668;11.756;2023-07-31T13:27:25;30.00;51.90
55313;DHT22;46892;45.668;11.756;2023-07-31T13:29:52;29.90;53.70
55313;DHT22;46892;45.668;11.756;2023-07-31T13:32:18;29.90;54.90
55313;DHT22;46892;45.668;11.756;2023-07-31T13:34:45;29.90;54.00
55313;DHT22;46892;45.668;11.756;2023-07-31T13:37:11;29.90;52.80
55313;DHT22;46892;45.668;11.756;2023-07-31T13:39:37;29.90;51.90
55313;DHT22;46892;45.668;11.756;2023-07-31T13:42:04;29.90;53.20
55313;DHT22;46892;45.668;11.756;2023-07-31T13:44:32;29.90;52.00
55313;DHT22;46892;45.668;11.756;2023-07-31T13:46:59;29.80;53.00
55313;DHT22;46892;45.668;11.756;2023-07-31T13:49:24;29.80;51.90
55313;DHT22;46892;45.668;11.756;2023-07-31T13:51:50;29.80;54.40
55313;DHT22;46892;45.668;11.756;2023-07-31T13:54:16;29.90;53.10
55313;DHT22;46892;45.668;11.756;2023-07-31T13:56:42;29.90;53.40
55313;DHT22;46892;45.668;11.756;2023-07-31T13:59:08;30.00;54.90
55313;DHT22;46892;45.668;11.756;2023-07-31T14:01:34;30.10;55.40
55313;DHT22;46892;45.668;11.756;2023-07-31T14:04:00;30.10;53.40
55313;DHT22;46892;45.668;11.756;2023-07-31T14:06:26;30.00;52.60
55313;DHT22;46892;45.668;11.756;2023-07-31T14:08:51;29.90;52.00
55313;DHT22;46892;45.668;11.756;2023-07-31T14:11:17;29.80;51.10
55313;DHT22;46892;45.668;11.756;2023-07-31T14:13:43;29.80;52.30
55313;DHT22;46892;45.668;11.756;2023-07-31T14:16:09;29.80;52.90
55313;DHT22;46892;45.668;11.756;2023-07-31T14:18:34;29.80;53.30
55313;DHT22;46892;45.668;11.756;2023-07-31T14:21:00;29.90;54.60
55313;DHT22;46892;45.668;11.756;2023-07-31T14:23:26;30.00;54.30
55313;DHT22;46892;45.668;11.756;2023-07-31T14:25:51;30.10;55.80
55313;DHT22;46892;45.668;11.756;2023-07-31T14:28:17;30.10;52.40
55313;DHT22;46892;45.668;11.756;2023-07-31T14:30:43;30.00;52.30
55313;DHT22;46892;45.668;11.756;2023-07-31T14:33:09;30.00;52.40
55313;DHT22;46892;45.668;11.756;2023-07-31T14:35:35;30.10;52.90
55313;DHT22;46892;45.668;11.756;2023-07-31T14:38:01;30.10;50.40
55313;DHT22;46892;45.668;11.756;2023-07-31T14:40:27;30.00;50.70
55313;DHT22;46892;45.668;11.756;2023-07-31T14:42:53;30.00;51.50
55313;DHT22;46892;45.668;11.756;2023-07-31T14:45:18;30.00;53.70
55313;DHT22;46892;45.668;11.756;2023-07-31T14:47:44;30.10;53.90
55313;DHT22;46892;45.668;11.756;2023-07-31T14:50:10;30.20;53.80
55313;DHT22;46892;45.668;11.756;2023-07-31T14:52:36;30.20;53.00
55313;DHT22;46892;45.668;11.756;2023-07-31T14:55:02;30.00;50.60
55313;DHT22;46892;45.668;11.756;2023-07-31T14:57:28;29.90;51.80
55313;DHT22;46892;45.668;11.756;2023-07-31T14:59:53;29.80;53.60
55313;DHT22;46892;45.668;11.756;2023-07-31T15:02:19;29.80;53.60
55313;DHT22;46892;45.668;11.756;2023-07-31T15:04:45;29.90;53.50
55313;DHT22;46892;45.668;11.756;2023-07-31T15:07:11;30.00;54.00
55313;DHT22;46892;45.668;11.756;2023-07-31T15:09:39;30.00;54.10
55313;DHT22;46892;45.668;11.756;2023-07-31T15:12:05;30.00;53.60
55313;DHT22;46892;45.668;11.756;2023-07-31T15:14:30;30.00;52.90
55313;DHT22;46892;45.668;11.756;2023-07-31T15:16:56;29.80;53.80
55313;DHT22;46892;45.668;11.756;2023-07-31T15:19:22;29.90;53.40
55313;DHT22;46892;45.668;11.756;2023-07-31T15:21:51;29.90;53.10